sensor_id;sensor_type;location;lat;lon;timestamp;P1;durP1;ratioP1;P2;durP2;ratioP2
4309;SDS011;2168;53.576;9.980;2022-10-16T00:00:22;8.17;;;6.00;;
4309;SDS011;2168;53.576;9.980;2022-10-16T00:02:47;7.77;;;5.83;;
4309;SDS011;2168;53.576;9.980;2022-10-16T00:05:13;7.90;;;5.90;;
4309;SDS011;2168;53.576;9.980;2022-10-16T00:07:38;7.93;;;6.00;;
4309;SDS011;2168;53.576;9.980;2022-10-16T00:10:03;10.47;;;5.90;;
4309;SDS011;2168;53.576;9.980;2022-10-16T00:12:28;5.40;;;4.90;;
4309;SDS011;2168;53.576;9.980;2022-10-16T00:14:53;9.30;;;5.30;;
4309;SDS011;2168;53.576;9.980;2022-10-16T00:17:19;7.67;;;5.40;;
4309;SDS011;2168;53.576;9.980;2022-10-16T00:19:44;12.17;;;4.20;;
4309;SDS011;2168;53.576;9.980;2022-10-16T00:22:09;7.20;;;4.47;;
4309;SDS011;2168;53.576;9.980;2022-10-16T00:24:35;6.90;;;4.20;;
4309;SDS011;2168;53.576;9.980;2022-10-16T00:27:01;6.43;;;3.67;;
4309;SDS011;2168;53.576;9.980;2022-10-16T00:29:26;5.83;;;3.60;;
4309;SDS011;2168;53.576;9.980;2022-10-16T00:31:51;9.67;;;3.83;;
4309;SDS011;2168;53.576;9.980;2022-10-16T00:34:16;6.67;;;3.40;;
4309;SDS011;2168;53.576;9.980;2022-10-16T00:36:42;9.23;;;3.10;;
4309;SDS011;2168;53.576;9.980;2022-10-16T00:39:07;4.53;;;2.80;;
4309;SDS011;2168;53.576;9.980;2022-10-16T00:41:32;3.70;;;2.43;;
4309;SDS011;2168;53.576;9.980;2022-10-16T00:43:59;5.13;;;2.60;;
4309;SDS011;2168;53.576;9.980;2022-10-16T00:46:28;11.83;;;3.60;;
4309;SDS011;2168;53.576;9.980;2022-10-16T00:49:02;3.77;;;2.70;;
4309;SDS011;2168;53.576;9.980;2022-10-16T00:51:35;6.47;;;3.10;;
4309;SDS011;2168;53.576;9.980;2022-10-16T00:54:01;3.00;;;2.57;;
4309;SDS011;2168;53.576;9.980;2022-10-16T00:56:27;2.97;;;2.20;;
4309;SDS011;2168;53.576;9.980;2022-10-16T00:58:52;12.90;;;2.60;;
4309;SDS011;2168;53.576;9.980;2022-10-16T01:01:18;5.50;;;2.87;;
4309;SDS011;2168;53.576;9.980;2022-10-16T01:03:43;5.77;;;2.57;;
4309;SDS011;2168;53.576;9.980;2022-10-16T01:11:22;3.70;;;2.60;;
4309;SDS011;2168;53.576;9.980;2022-10-16T01:13:48;2.90;;;2.00;;
4309;SDS011;2168;53.576;9.980;2022-10-16T01:16:17;3.23;;;2.70;;
4309;SDS011;2168;53.576;9.980;2022-10-16T01:18:49;5.60;;;2.20;;
4309;SDS011;2168;53.576;9.980;2022-10-16T01:21:22;6.33;;;2.20;;
4309;SDS011;2168;53.576;9.980;2022-10-16T01:24:06;3.53;;;2.07;;
4309;SDS011;2168;53.576;9.980;2022-10-16T01:29:28;4.17;;;2.37;;
4309;SDS011;2168;53.576;9.980;2022-10-16T01:31:56;7.20;;;2.23;;
4309;SDS011;2168;53.576;9.980;2022-10-16T01:34:35;4.03;;;1.93;;
4309;SDS011;2168;53.576;9.980;2022-10-16T01:37:03;3.20;;;1.90;;
4309;SDS011;2168;53.576;9.980;2022-10-16T01:39:30;3.17;;;2.10;;
4309;SDS011;2168;53.576;9.980;2022-10-16T01:42:00;1.83;;;1.73;;
4309;SDS011;2168;53.576;9.980;2022-10-16T01:44:26;2.90;;;1.90;;
4309;SDS011;2168;53.576;9.980;2022-10-16T01:46:52;7.97;;;2.00;;
4309;SDS011;2168;53.576;9.980;2022-10-16T01:49:20;2.23;;;2.03;;
4309;SDS011;2168;53.576;9.980;2022-10-16T01:51:47;10.50;;;2.10;;
4309;SDS011;2168;53.576;9.980;2022-10-16T01:54:14;11.10;;;2.10;;
4309;SDS011;2168;53.576;9.980;2022-10-16T01:56:42;4.93;;;2.30;;
4309;SDS011;2168;53.576;9.980;2022-10-16T01:59:15;4.50;;;1.90;;
4309;SDS011;2168;53.576;9.980;2022-10-16T02:01:42;6.20;;;2.00;;
4309;SDS011;2168;53.576;9.980;2022-10-16T02:07:04;2.93;;;2.07;;
4309;SDS011;2168;53.576;9.980;2022-10-16T02:09:31;5.33;;;2.10;;
4309;SDS011;2168;53.576;9.980;2022-10-16T02:11:58;7.20;;;2.10;;
4309;SDS011;2168;53.576;9.980;2022-10-16T02:14:24;6.57;;;2.10;;
4309;SDS011;2168;53.576;9.980;2022-10-16T02:16:51;4.83;;;2.10;;
4309;SDS011;2168;53.576;9.980;2022-10-16T02:19:17;3.33;;;1.77;;
4309;SDS011;2168;53.576;9.980;2022-10-16T02:24:18;3.60;;;1.73;;
4309;SDS011;2168;53.576;9.980;2022-10-16T02:26:48;2.60;;;1.60;;
4309;SDS011;2168;53.576;9.980;2022-10-16T02:29:15;1.90;;;1.70;;
4309;SDS011;2168;53.576;9.980;2022-10-16T02:31:42;3.20;;;2.30;;
4309;SDS011;2168;53.576;9.980;2022-10-16T02:34:08;1.57;;;1.47;;
4309;SDS011;2168;53.576;9.980;2022-10-16T02:36:36;2.40;;;1.60;;
4309;SDS011;2168;53.576;9.980;2022-10-16T02:39:02;6.27;;;1.80;;
4309;SDS011;2168;53.576;9.980;2022-10-16T02:41:29;3.87;;;1.83;;
4309;SDS011;2168;53.576;9.980;2022-10-16T02:43:55;3.50;;;1.60;;
4309;SDS011;2168;53.576;9.980;2022-10-16T02:46:20;7.70;;;1.77;;
4309;SDS011;2168;53.576;9.980;2022-10-16T02:48:46;5.27;;;1.50;;
4309;SDS011;2168;53.576;9.980;2022-10-16T02:51:11;5.97;;;2.43;;
4309;SDS011;2168;53.576;9.980;2022-10-16T02:53:36;2.63;;;1.77;;
4309;SDS011;2168;53.576;9.980;2022-10-16T02:56:01;6.87;;;2.10;;
4309;SDS011;2168;53.576;9.980;2022-10-16T02:58:26;7.80;;;1.97;;
4309;SDS011;2168;53.576;9.980;2022-10-16T03:00:52;5.23;;;1.70;;
4309;SDS011;2168;53.576;9.980;2022-10-16T03:03:17;3.10;;;2.03;;
4309;SDS011;2168;53.576;9.980;2022-10-16T03:05:43;4.80;;;2.00;;
4309;SDS011;2168;53.576;9.980;2022-10-16T03:08:10;4.67;;;1.93;;
4309;SDS011;2168;53.576;9.980;2022-10-16T03:10:35;4.13;;;1.70;;
4309;SDS011;2168;53.576;9.980;2022-10-16T03:13:01;11.70;;;1.50;;
4309;SDS011;2168;53.576;9.980;2022-10-16T03:15:26;2.27;;;1.80;;
4309;SDS011;2168;53.576;9.980;2022-10-16T03:17:53;3.13;;;2.20;;
4309;SDS011;2168;53.576;9.980;2022-10-16T03:20:18;1.70;;;1.60;;
4309;SDS011;2168;53.576;9.980;2022-10-16T03:22:43;1.70;;;1.60;;
4309;SDS011;2168;53.576;9.980;2022-10-16T03:25:08;7.57;;;1.63;;
4309;SDS011;2168;53.576;9.980;2022-10-16T03:27:34;3.17;;;1.40;;
4309;SDS011;2168;53.576;9.980;2022-10-16T03:29:59;5.23;;;1.70;;
4309;SDS011;2168;53.576;9.980;2022-10-16T03:32:24;3.23;;;1.30;;
4309;SDS011;2168;53.576;9.980;2022-10-16T03:34:50;2.47;;;1.70;;
4309;SDS011;2168;53.576;9.980;2022-10-16T03:37:15;3.53;;;2.03;;
4309;SDS011;2168;53.576;9.980;2022-10-16T03:39:40;6.50;;;1.73;;
4309;SDS011;2168;53.576;9.980;2022-10-16T03:42:06;3.57;;;2.10;;
4309;SDS011;2168;53.576;9.980;2022-10-16T03:44:31;6.57;;;1.73;;
4309;SDS011;2168;53.576;9.980;2022-10-16T03:46:56;5.10;;;1.87;;
4309;SDS011;2168;53.576;9.980;2022-10-16T03:49:21;4.30;;;1.63;;
4309;SDS011;2168;53.576;9.980;2022-10-16T03:51:47;2.10;;;1.30;;
4309;SDS011;2168;53.576;9.980;2022-10-16T03:54:12;1.50;;;1.40;;
4309;SDS011;2168;53.576;9.980;2022-10-16T03:56:37;8.47;;;1.80;;
4309;SDS011;2168;53.576;9.980;2022-10-16T03:59:03;3.20;;;1.80;;
4309;SDS011;2168;53.576;9.980;2022-10-16T04:01:28;3.63;;;1.80;;
4309;SDS011;2168;53.576;9.980;2022-10-16T04:03:53;2.87;;;1.80;;
4309;SDS011;2168;53.576;9.980;2022-10-16T04:06:18;6.90;;;2.27;;
4309;SDS011;2168;53.576;9.980;2022-10-16T04:08:44;4.60;;;2.20;;
4309;SDS011;2168;53.576;9.980;2022-10-16T04:11:09;4.13;;;2.10;;
4309;SDS011;2168;53.576;9.980;2022-10-16T04:13:35;4.27;;;2.20;;
4309;SDS011;2168;53.576;9.980;2022-10-16T04:16:00;3.07;;;1.73;;
4309;SDS011;2168;53.576;9.980;2022-10-16T04:18:25;2.00;;;1.60;;
4309;SDS011;2168;53.576;9.980;2022-10-16T04:20:52;4.60;;;1.77;;
4309;SDS011;2168;53.576;9.980;2022-10-16T04:23:17;2.80;;;1.50;;
4309;SDS011;2168;53.576;9.980;2022-10-16T04:25:42;2.00;;;1.30;;
4309;SDS011;2168;53.576;9.980;2022-10-16T04:28:07;6.83;;;1.60;;
4309;SDS011;2168;53.576;9.980;2022-10-16T04:30:33;5.67;;;1.80;;
4309;SDS011;2168;53.576;9.980;2022-10-16T04:32:58;5.90;;;1.60;;
4309;SDS011;2168;53.576;9.980;2022-10-16T04:35:23;3.90;;;1.60;;
4309;SDS011;2168;53.576;9.980;2022-10-16T04:37:49;5.27;;;1.60;;
4309;SDS011;2168;53.576;9.980;2022-10-16T04:40:15;2.43;;;1.40;;
4309;SDS011;2168;53.576;9.980;2022-10-16T04:42:40;4.33;;;1.67;;
4309;SDS011;2168;53.576;9.980;2022-10-16T04:45:06;2.90;;;1.27;;
4309;SDS011;2168;53.576;9.980;2022-10-16T04:47:31;1.67;;;1.30;;
4309;SDS011;2168;53.576;9.980;2022-10-16T04:49:56;10.13;;;1.50;;
4309;SDS011;2168;53.576;9.980;2022-10-16T04:52:22;4.13;;;2.43;;
4309;SDS011;2168;53.576;9.980;2022-10-16T04:54:49;2.20;;;1.77;;
4309;SDS011;2168;53.576;9.980;2022-10-16T04:57:15;6.03;;;1.93;;
4309;SDS011;2168;53.576;9.980;2022-10-16T04:59:40;5.43;;;1.60;;
4309;SDS011;2168;53.576;9.980;2022-10-16T05:02:05;4.90;;;1.93;;
4309;SDS011;2168;53.576;9.980;2022-10-16T05:04:31;2.50;;;1.70;;
4309;SDS011;2168;53.576;9.980;2022-10-16T05:06:57;4.03;;;1.87;;
4309;SDS011;2168;53.576;9.980;2022-10-16T05:09:22;7.63;;;2.07;;
4309;SDS011;2168;53.576;9.980;2022-10-16T05:11:47;4.97;;;2.17;;
4309;SDS011;2168;53.576;9.980;2022-10-16T05:14:13;2.73;;;2.00;;
4309;SDS011;2168;53.576;9.980;2022-10-16T05:16:38;2.57;;;2.33;;
4309;SDS011;2168;53.576;9.980;2022-10-16T05:19:03;6.40;;;2.43;;
4309;SDS011;2168;53.576;9.980;2022-10-16T05:21:29;2.70;;;1.97;;
4309;SDS011;2168;53.576;9.980;2022-10-16T05:23:54;4.70;;;2.10;;
4309;SDS011;2168;53.576;9.980;2022-10-16T05:26:20;6.13;;;2.33;;
4309;SDS011;2168;53.576;9.980;2022-10-16T05:28:45;4.87;;;1.90;;
4309;SDS011;2168;53.576;9.980;2022-10-16T05:31:10;7.83;;;2.47;;
4309;SDS011;2168;53.576;9.980;2022-10-16T05:33:36;9.03;;;2.60;;
4309;SDS011;2168;53.576;9.980;2022-10-16T05:36:02;7.50;;;2.00;;
4309;SDS011;2168;53.576;9.980;2022-10-16T05:38:28;3.33;;;1.80;;
4309;SDS011;2168;53.576;9.980;2022-10-16T05:40:53;6.10;;;2.10;;
4309;SDS011;2168;53.576;9.980;2022-10-16T05:43:18;5.90;;;2.27;;
4309;SDS011;2168;53.576;9.980;2022-10-16T05:45:44;4.33;;;1.87;;
4309;SDS011;2168;53.576;9.980;2022-10-16T05:48:09;4.10;;;1.83;;
4309;SDS011;2168;53.576;9.980;2022-10-16T05:50:34;6.13;;;2.03;;
4309;SDS011;2168;53.576;9.980;2022-10-16T05:52:59;6.60;;;2.00;;
4309;SDS011;2168;53.576;9.980;2022-10-16T05:55:25;4.87;;;1.70;;
4309;SDS011;2168;53.576;9.980;2022-10-16T05:57:50;3.40;;;1.93;;
4309;SDS011;2168;53.576;9.980;2022-10-16T06:00:15;5.83;;;1.90;;
4309;SDS011;2168;53.576;9.980;2022-10-16T06:02:40;4.53;;;1.87;;
4309;SDS011;2168;53.576;9.980;2022-10-16T06:05:06;5.47;;;1.77;;
4309;SDS011;2168;53.576;9.980;2022-10-16T06:07:33;3.30;;;1.67;;
4309;SDS011;2168;53.576;9.980;2022-10-16T06:09:59;4.53;;;2.30;;
4309;SDS011;2168;53.576;9.980;2022-10-16T06:12:24;6.80;;;1.90;;
4309;SDS011;2168;53.576;9.980;2022-10-16T06:14:49;5.53;;;2.00;;
4309;SDS011;2168;53.576;9.980;2022-10-16T06:17:14;6.90;;;2.13;;
4309;SDS011;2168;53.576;9.980;2022-10-16T06:19:40;2.93;;;1.90;;
4309;SDS011;2168;53.576;9.980;2022-10-16T06:22:05;17.23;;;2.43;;
4309;SDS011;2168;53.576;9.980;2022-10-16T06:24:30;7.13;;;2.00;;
4309;SDS011;2168;53.576;9.980;2022-10-16T06:26:55;3.30;;;2.00;;
4309;SDS011;2168;53.576;9.980;2022-10-16T06:29:20;5.10;;;1.90;;
4309;SDS011;2168;53.576;9.980;2022-10-16T06:31:46;2.23;;;1.93;;
4309;SDS011;2168;53.576;9.980;2022-10-16T06:34:11;2.10;;;1.90;;
4309;SDS011;2168;53.576;9.980;2022-10-16T06:36:37;5.50;;;2.00;;
4309;SDS011;2168;53.576;9.980;2022-10-16T06:39:02;2.40;;;1.60;;
4309;SDS011;2168;53.576;9.980;2022-10-16T06:41:28;3.30;;;2.03;;
4309;SDS011;2168;53.576;9.980;2022-10-16T06:43:53;5.17;;;2.13;;
4309;SDS011;2168;53.576;9.980;2022-10-16T06:46:19;3.87;;;2.37;;
4309;SDS011;2168;53.576;9.980;2022-10-16T06:48:45;4.87;;;2.30;;
4309;SDS011;2168;53.576;9.980;2022-10-16T06:51:11;3.00;;;2.20;;
4309;SDS011;2168;53.576;9.980;2022-10-16T06:53:38;4.33;;;2.40;;
4309;SDS011;2168;53.576;9.980;2022-10-16T06:56:14;4.43;;;1.80;;
4309;SDS011;2168;53.576;9.980;2022-10-16T06:58:39;7.03;;;1.90;;
4309;SDS011;2168;53.576;9.980;2022-10-16T07:01:05;7.93;;;2.70;;
4309;SDS011;2168;53.576;9.980;2022-10-16T07:03:30;3.17;;;2.10;;
4309;SDS011;2168;53.576;9.980;2022-10-16T07:05:56;5.20;;;2.27;;
4309;SDS011;2168;53.576;9.980;2022-10-16T07:08:21;4.67;;;2.67;;
4309;SDS011;2168;53.576;9.980;2022-10-16T07:10:46;2.50;;;2.00;;
4309;SDS011;2168;53.576;9.980;2022-10-16T07:13:12;4.97;;;2.47;;
4309;SDS011;2168;53.576;9.980;2022-10-16T07:15:40;3.07;;;2.40;;
4309;SDS011;2168;53.576;9.980;2022-10-16T07:18:05;2.67;;;2.47;;
4309;SDS011;2168;53.576;9.980;2022-10-16T07:20:31;5.33;;;2.50;;
4309;SDS011;2168;53.576;9.980;2022-10-16T07:22:56;5.70;;;2.50;;
4309;SDS011;2168;53.576;9.980;2022-10-16T07:25:21;4.97;;;3.23;;
4309;SDS011;2168;53.576;9.980;2022-10-16T07:27:47;4.27;;;2.50;;
4309;SDS011;2168;53.576;9.980;2022-10-16T07:30:12;6.60;;;3.10;;
4309;SDS011;2168;53.576;9.980;2022-10-16T07:32:37;4.37;;;2.40;;
4309;SDS011;2168;53.576;9.980;2022-10-16T07:35:03;5.07;;;2.57;;
4309;SDS011;2168;53.576;9.980;2022-10-16T07:37:28;6.63;;;2.97;;
4309;SDS011;2168;53.576;9.980;2022-10-16T07:39:53;4.63;;;2.50;;
4309;SDS011;2168;53.576;9.980;2022-10-16T07:42:18;4.53;;;2.70;;
4309;SDS011;2168;53.576;9.980;2022-10-16T07:44:45;3.13;;;2.63;;
4309;SDS011;2168;53.576;9.980;2022-10-16T07:47:10;3.20;;;2.60;;
4309;SDS011;2168;53.576;9.980;2022-10-16T07:49:35;2.83;;;2.63;;
4309;SDS011;2168;53.576;9.980;2022-10-16T07:52:00;5.70;;;2.30;;
4309;SDS011;2168;53.576;9.980;2022-10-16T07:54:25;6.37;;;2.70;;
4309;SDS011;2168;53.576;9.980;2022-10-16T07:56:51;3.00;;;2.50;;
4309;SDS011;2168;53.576;9.980;2022-10-16T07:59:16;5.73;;;2.93;;
4309;SDS011;2168;53.576;9.980;2022-10-16T08:01:41;3.50;;;2.67;;
4309;SDS011;2168;53.576;9.980;2022-10-16T08:04:07;2.80;;;2.63;;
4309;SDS011;2168;53.576;9.980;2022-10-16T08:06:35;3.97;;;2.30;;
4309;SDS011;2168;53.576;9.980;2022-10-16T08:09:01;5.33;;;3.00;;
4309;SDS011;2168;53.576;9.980;2022-10-16T08:11:27;7.90;;;2.63;;
4309;SDS011;2168;53.576;9.980;2022-10-16T08:13:52;4.13;;;2.53;;
4309;SDS011;2168;53.576;9.980;2022-10-16T08:16:17;3.53;;;2.70;;
4309;SDS011;2168;53.576;9.980;2022-10-16T08:18:42;3.80;;;2.87;;
4309;SDS011;2168;53.576;9.980;2022-10-16T08:21:12;4.70;;;3.30;;
4309;SDS011;2168;53.576;9.980;2022-10-16T08:23:37;3.53;;;2.80;;
4309;SDS011;2168;53.576;9.980;2022-10-16T08:26:04;3.70;;;2.57;;
4309;SDS011;2168;53.576;9.980;2022-10-16T08:28:29;5.03;;;2.20;;
4309;SDS011;2168;53.576;9.980;2022-10-16T08:30:54;6.40;;;2.73;;
4309;SDS011;2168;53.576;9.980;2022-10-16T08:33:21;5.10;;;2.33;;
4309;SDS011;2168;53.576;9.980;2022-10-16T08:35:50;5.10;;;3.13;;
4309;SDS011;2168;53.576;9.980;2022-10-16T08:38:15;7.10;;;3.20;;
4309;SDS011;2168;53.576;9.980;2022-10-16T08:40:41;3.50;;;2.57;;
4309;SDS011;2168;53.576;9.980;2022-10-16T08:50:36;4.67;;;2.53;;
4309;SDS011;2168;53.576;9.980;2022-10-16T08:53:02;5.50;;;2.50;;
4309;SDS011;2168;53.576;9.980;2022-10-16T08:55:37;3.27;;;2.50;;
4309;SDS011;2168;53.576;9.980;2022-10-16T08:58:09;6.00;;;2.47;;
4309;SDS011;2168;53.576;9.980;2022-10-16T09:00:35;3.80;;;2.70;;
4309;SDS011;2168;53.576;9.980;2022-10-16T09:05:38;2.63;;;2.27;;
4309;SDS011;2168;53.576;9.980;2022-10-16T09:13:29;4.50;;;2.37;;
4309;SDS011;2168;53.576;9.980;2022-10-16T09:16:57;6.77;;;1.70;;
4309;SDS011;2168;53.576;9.980;2022-10-16T09:21:23;3.30;;;1.90;;
4309;SDS011;2168;53.576;9.980;2022-10-16T09:23:49;2.13;;;1.93;;
4309;SDS011;2168;53.576;9.980;2022-10-16T09:26:15;3.13;;;2.10;;
4309;SDS011;2168;53.576;9.980;2022-10-16T09:28:41;2.30;;;2.10;;
4309;SDS011;2168;53.576;9.980;2022-10-16T09:31:24;2.97;;;1.80;;
4309;SDS011;2168;53.576;9.980;2022-10-16T09:33:51;6.10;;;2.03;;
4309;SDS011;2168;53.576;9.980;2022-10-16T09:36:17;3.30;;;1.77;;
4309;SDS011;2168;53.576;9.980;2022-10-16T09:38:43;3.93;;;1.77;;
4309;SDS011;2168;53.576;9.980;2022-10-16T09:41:16;3.80;;;1.93;;
4309;SDS011;2168;53.576;9.980;2022-10-16T09:48:48;4.73;;;1.80;;
4309;SDS011;2168;53.576;9.980;2022-10-16T09:51:24;2.73;;;1.57;;
4309;SDS011;2168;53.576;9.980;2022-10-16T09:53:54;2.97;;;1.50;;
4309;SDS011;2168;53.576;9.980;2022-10-16T09:56:29;3.70;;;2.20;;
4309;SDS011;2168;53.576;9.980;2022-10-16T09:58:59;6.93;;;1.80;;
4309;SDS011;2168;53.576;9.980;2022-10-16T10:01:27;4.67;;;1.77;;
4309;SDS011;2168;53.576;9.980;2022-10-16T10:03:55;4.40;;;1.77;;
4309;SDS011;2168;53.576;9.980;2022-10-16T10:06:27;4.93;;;1.60;;
4309;SDS011;2168;53.576;9.980;2022-10-16T10:08:58;1.50;;;1.40;;
4309;SDS011;2168;53.576;9.980;2022-10-16T10:16:51;3.33;;;1.90;;
4309;SDS011;2168;53.576;9.980;2022-10-16T10:19:21;6.37;;;1.63;;
4309;SDS011;2168;53.576;9.980;2022-10-16T10:21:47;4.93;;;1.87;;
4309;SDS011;2168;53.576;9.980;2022-10-16T10:24:13;3.13;;;1.60;;
4309;SDS011;2168;53.576;9.980;2022-10-16T10:26:40;3.03;;;1.67;;
4309;SDS011;2168;53.576;9.980;2022-10-16T10:29:11;2.47;;;1.27;;
4309;SDS011;2168;53.576;9.980;2022-10-16T10:31:50;2.10;;;1.63;;
4309;SDS011;2168;53.576;9.980;2022-10-16T10:39:58;3.80;;;1.50;;
4309;SDS011;2168;53.576;9.980;2022-10-16T10:42:30;3.33;;;1.10;;
4309;SDS011;2168;53.576;9.980;2022-10-16T10:53:15;6.73;;;1.40;;
4309;SDS011;2168;53.576;9.980;2022-10-16T10:58:20;4.63;;;1.80;;
4309;SDS011;2168;53.576;9.980;2022-10-16T11:00:56;5.80;;;1.53;;
4309;SDS011;2168;53.576;9.980;2022-10-16T11:06:19;5.23;;;1.50;;
4309;SDS011;2168;53.576;9.980;2022-10-16T11:08:45;5.30;;;1.20;;
4309;SDS011;2168;53.576;9.980;2022-10-16T11:11:14;4.37;;;2.83;;
4309;SDS011;2168;53.576;9.980;2022-10-16T11:13:57;6.33;;;1.33;;
4309;SDS011;2168;53.576;9.980;2022-10-16T11:16:28;8.63;;;1.60;;
4309;SDS011;2168;53.576;9.980;2022-10-16T11:21:30;1.77;;;1.00;;
4309;SDS011;2168;53.576;9.980;2022-10-16T11:26:25;4.03;;;1.40;;
4309;SDS011;2168;53.576;9.980;2022-10-16T11:28:52;5.00;;;2.20;;
4309;SDS011;2168;53.576;9.980;2022-10-16T11:31:23;8.27;;;1.70;;
4309;SDS011;2168;53.576;9.980;2022-10-16T11:34:12;6.37;;;1.37;;
4309;SDS011;2168;53.576;9.980;2022-10-16T11:36:42;5.93;;;1.67;;
4309;SDS011;2168;53.576;9.980;2022-10-16T11:39:24;1.47;;;1.10;;
4309;SDS011;2168;53.576;9.980;2022-10-16T11:49:31;2.70;;;1.10;;
4309;SDS011;2168;53.576;9.980;2022-10-16T11:52:19;1.23;;;1.10;;
4309;SDS011;2168;53.576;9.980;2022-10-16T11:54:54;2.20;;;2.00;;
4309;SDS011;2168;53.576;9.980;2022-10-16T11:57:23;3.60;;;1.73;;
4309;SDS011;2168;53.576;9.980;2022-10-16T12:07:32;2.77;;;1.53;;
4309;SDS011;2168;53.576;9.980;2022-10-16T12:10:09;5.27;;;1.40;;
4309;SDS011;2168;53.576;9.980;2022-10-16T12:15:20;7.73;;;2.00;;
4309;SDS011;2168;53.576;9.980;2022-10-16T12:17:45;4.40;;;1.40;;
4309;SDS011;2168;53.576;9.980;2022-10-16T12:22:37;5.30;;;1.80;;
4309;SDS011;2168;53.576;9.980;2022-10-16T12:25:17;5.07;;;1.97;;
4309;SDS011;2168;53.576;9.980;2022-10-16T12:27:44;2.33;;;1.10;;
4309;SDS011;2168;53.576;9.980;2022-10-16T12:30:14;5.27;;;1.60;;
4309;SDS011;2168;53.576;9.980;2022-10-16T12:32:45;5.00;;;1.60;;
4309;SDS011;2168;53.576;9.980;2022-10-16T12:35:19;6.10;;;1.47;;
4309;SDS011;2168;53.576;9.980;2022-10-16T12:37:45;2.73;;;1.40;;
4309;SDS011;2168;53.576;9.980;2022-10-16T12:40:11;4.40;;;1.70;;
4309;SDS011;2168;53.576;9.980;2022-10-16T12:42:37;5.53;;;1.70;;
4309;SDS011;2168;53.576;9.980;2022-10-16T12:45:13;2.90;;;1.73;;
4309;SDS011;2168;53.576;9.980;2022-10-16T12:47:50;6.43;;;1.40;;
4309;SDS011;2168;53.576;9.980;2022-10-16T12:52:55;4.53;;;1.40;;
4309;SDS011;2168;53.576;9.980;2022-10-16T12:55:21;4.53;;;1.63;;
4309;SDS011;2168;53.576;9.980;2022-10-16T13:07:48;4.80;;;2.40;;
4309;SDS011;2168;53.576;9.980;2022-10-16T13:13:05;3.23;;;2.90;;
4309;SDS011;2168;53.576;9.980;2022-10-16T13:20:31;2.67;;;2.30;;
4309;SDS011;2168;53.576;9.980;2022-10-16T13:23:04;5.07;;;2.60;;
4309;SDS011;2168;53.576;9.980;2022-10-16T13:27:59;3.83;;;2.10;;
4309;SDS011;2168;53.576;9.980;2022-10-16T13:30:25;11.73;;;2.47;;
4309;SDS011;2168;53.576;9.980;2022-10-16T13:33:34;7.67;;;1.90;;
4309;SDS011;2168;53.576;9.980;2022-10-16T13:35:46;3.37;;;2.10;;
4309;SDS011;2168;53.576;9.980;2022-10-16T13:38:13;4.43;;;1.80;;
4309;SDS011;2168;53.576;9.980;2022-10-16T13:40:48;4.97;;;1.80;;
4309;SDS011;2168;53.576;9.980;2022-10-16T13:43:14;11.67;;;2.70;;
4309;SDS011;2168;53.576;9.980;2022-10-16T13:45:39;6.40;;;2.30;;
4309;SDS011;2168;53.576;9.980;2022-10-16T13:48:05;6.20;;;5.60;;
4309;SDS011;2168;53.576;9.980;2022-10-16T13:50:31;3.27;;;2.20;;
4309;SDS011;2168;53.576;9.980;2022-10-16T13:53:05;6.00;;;2.43;;
4309;SDS011;2168;53.576;9.980;2022-10-16T13:55:31;4.13;;;2.00;;
4309;SDS011;2168;53.576;9.980;2022-10-16T13:58:13;4.63;;;1.70;;
4309;SDS011;2168;53.576;9.980;2022-10-16T14:00:39;3.33;;;1.87;;
4309;SDS011;2168;53.576;9.980;2022-10-16T14:03:15;5.97;;;3.90;;
4309;SDS011;2168;53.576;9.980;2022-10-16T14:05:57;3.57;;;3.10;;
4309;SDS011;2168;53.576;9.980;2022-10-16T14:08:24;3.70;;;2.10;;
4309;SDS011;2168;53.576;9.980;2022-10-16T14:10:50;5.10;;;2.20;;
4309;SDS011;2168;53.576;9.980;2022-10-16T14:13:20;2.70;;;2.17;;
4309;SDS011;2168;53.576;9.980;2022-10-16T14:15:49;3.50;;;2.07;;
4309;SDS011;2168;53.576;9.980;2022-10-16T14:18:20;2.60;;;2.50;;
4309;SDS011;2168;53.576;9.980;2022-10-16T14:20:46;6.20;;;2.67;;
4309;SDS011;2168;53.576;9.980;2022-10-16T14:25:43;8.40;;;5.17;;
4309;SDS011;2168;53.576;9.980;2022-10-16T14:30:34;3.50;;;2.30;;
4309;SDS011;2168;53.576;9.980;2022-10-16T14:33:04;8.10;;;2.83;;
4309;SDS011;2168;53.576;9.980;2022-10-16T14:37:56;4.73;;;2.20;;
4309;SDS011;2168;53.576;9.980;2022-10-16T14:40:23;5.43;;;4.53;;
4309;SDS011;2168;53.576;9.980;2022-10-16T14:42:48;6.30;;;3.57;;
4309;SDS011;2168;53.576;9.980;2022-10-16T14:45:15;2.77;;;1.70;;
4309;SDS011;2168;53.576;9.980;2022-10-16T14:47:50;4.40;;;1.80;;
4309;SDS011;2168;53.576;9.980;2022-10-16T14:50:17;8.07;;;2.27;;
4309;SDS011;2168;53.576;9.980;2022-10-16T14:52:42;4.73;;;1.73;;
4309;SDS011;2168;53.576;9.980;2022-10-16T14:55:09;9.93;;;4.20;;
4309;SDS011;2168;53.576;9.980;2022-10-16T14:57:34;6.03;;;3.20;;
4309;SDS011;2168;53.576;9.980;2022-10-16T15:00:00;9.50;;;2.57;;
4309;SDS011;2168;53.576;9.980;2022-10-16T15:02:29;8.87;;;2.77;;
4309;SDS011;2168;53.576;9.980;2022-10-16T15:04:56;4.80;;;2.07;;
4309;SDS011;2168;53.576;9.980;2022-10-16T15:07:21;5.77;;;1.97;;
4309;SDS011;2168;53.576;9.980;2022-10-16T15:09:47;3.80;;;1.47;;
4309;SDS011;2168;53.576;9.980;2022-10-16T15:12:12;12.87;;;2.30;;
4309;SDS011;2168;53.576;9.980;2022-10-16T15:14:38;5.17;;;1.80;;
4309;SDS011;2168;53.576;9.980;2022-10-16T15:17:03;5.27;;;3.53;;
4309;SDS011;2168;53.576;9.980;2022-10-16T15:19:28;4.90;;;1.40;;
4309;SDS011;2168;53.576;9.980;2022-10-16T15:21:53;5.00;;;2.10;;
4309;SDS011;2168;53.576;9.980;2022-10-16T15:24:19;5.70;;;2.20;;
4309;SDS011;2168;53.576;9.980;2022-10-16T15:26:44;4.40;;;2.37;;
4309;SDS011;2168;53.576;9.980;2022-10-16T15:29:11;6.43;;;2.90;;
4309;SDS011;2168;53.576;9.980;2022-10-16T15:31:36;3.87;;;2.00;;
4309;SDS011;2168;53.576;9.980;2022-10-16T15:34:02;6.97;;;6.37;;
4309;SDS011;2168;53.576;9.980;2022-10-16T15:36:30;5.13;;;2.53;;
4309;SDS011;2168;53.576;9.980;2022-10-16T15:38:55;7.03;;;2.40;;
4309;SDS011;2168;53.576;9.980;2022-10-16T15:41:21;6.00;;;4.00;;
4309;SDS011;2168;53.576;9.980;2022-10-16T15:43:49;3.87;;;2.03;;
4309;SDS011;2168;53.576;9.980;2022-10-16T15:46:15;7.90;;;2.33;;
4309;SDS011;2168;53.576;9.980;2022-10-16T15:48:42;4.47;;;3.47;;
4309;SDS011;2168;53.576;9.980;2022-10-16T15:51:08;4.20;;;2.00;;
4309;SDS011;2168;53.576;9.980;2022-10-16T15:53:34;10.07;;;2.40;;
4309;SDS011;2168;53.576;9.980;2022-10-16T15:56:04;4.33;;;2.70;;
4309;SDS011;2168;53.576;9.980;2022-10-16T15:58:30;4.90;;;2.67;;
4309;SDS011;2168;53.576;9.980;2022-10-16T16:00:58;6.73;;;2.10;;
4309;SDS011;2168;53.576;9.980;2022-10-16T16:03:26;8.03;;;2.63;;
4309;SDS011;2168;53.576;9.980;2022-10-16T16:05:52;4.43;;;2.30;;
4309;SDS011;2168;53.576;9.980;2022-10-16T16:08:17;9.13;;;2.40;;
4309;SDS011;2168;53.576;9.980;2022-10-16T16:10:42;8.20;;;1.83;;
4309;SDS011;2168;53.576;9.980;2022-10-16T16:13:07;4.63;;;1.83;;
4309;SDS011;2168;53.576;9.980;2022-10-16T16:15:33;3.23;;;1.50;;
4309;SDS011;2168;53.576;9.980;2022-10-16T16:17:58;4.00;;;1.73;;
4309;SDS011;2168;53.576;9.980;2022-10-16T16:20:23;6.57;;;2.20;;
4309;SDS011;2168;53.576;9.980;2022-10-16T16:22:48;5.00;;;2.17;;
4309;SDS011;2168;53.576;9.980;2022-10-16T16:25:14;4.67;;;2.10;;
4309;SDS011;2168;53.576;9.980;2022-10-16T16:27:39;7.60;;;3.07;;
4309;SDS011;2168;53.576;9.980;2022-10-16T16:30:07;4.80;;;2.30;;
4309;SDS011;2168;53.576;9.980;2022-10-16T16:32:34;7.00;;;2.17;;
4309;SDS011;2168;53.576;9.980;2022-10-16T16:34:59;6.83;;;2.40;;
4309;SDS011;2168;53.576;9.980;2022-10-16T16:37:25;5.00;;;2.37;;
4309;SDS011;2168;53.576;9.980;2022-10-16T16:39:50;10.00;;;2.70;;
4309;SDS011;2168;53.576;9.980;2022-10-16T16:42:15;7.00;;;2.30;;
4309;SDS011;2168;53.576;9.980;2022-10-16T16:44:41;5.00;;;1.97;;
4309;SDS011;2168;53.576;9.980;2022-10-16T16:47:06;9.40;;;2.40;;
4309;SDS011;2168;53.576;9.980;2022-10-16T16:49:32;4.67;;;2.13;;
4309;SDS011;2168;53.576;9.980;2022-10-16T16:51:57;8.20;;;2.00;;
4309;SDS011;2168;53.576;9.980;2022-10-16T16:54:22;7.73;;;2.40;;
4309;SDS011;2168;53.576;9.980;2022-10-16T16:56:47;7.77;;;2.90;;
4309;SDS011;2168;53.576;9.980;2022-10-16T16:59:14;6.53;;;3.10;;
4309;SDS011;2168;53.576;9.980;2022-10-16T17:01:40;8.73;;;3.37;;
4309;SDS011;2168;53.576;9.980;2022-10-16T17:04:05;6.70;;;3.43;;
4309;SDS011;2168;53.576;9.980;2022-10-16T17:06:31;7.07;;;2.60;;
4309;SDS011;2168;53.576;9.980;2022-10-16T17:08:56;9.47;;;2.90;;
4309;SDS011;2168;53.576;9.980;2022-10-16T17:11:23;7.27;;;3.00;;